createdAt,value
2022-11-12T00:00:43.119Z,102723.91
2022-11-12T00:03:28.481Z,102725.00
2022-11-12T00:06:14.094Z,102727.69
2022-11-12T00:08:59.575Z,102731.47
2022-11-12T00:11:45.163Z,102734.19
2022-11-12T00:14:30.470Z,102739.38
2022-11-12T00:17:16.010Z,102735.31
2022-11-12T00:20:01.571Z,102738.28
2022-11-12T00:22:46.710Z,102732.56
2022-11-12T00:25:32.213Z,102732.34
2022-11-12T00:28:17.715Z,102741.53
2022-11-12T00:31:08.378Z,102738.00
2022-11-12T00:33:55.091Z,102741.00
2022-11-12T00:36:40.312Z,102736.31
2022-11-12T00:39:25.718Z,102726.34
2022-11-12T00:42:11.360Z,102726.06
2022-11-12T00:44:56.651Z,102728.81
2022-11-12T00:47:42.289Z,102723.34
2022-11-12T00:50:27.692Z,102730.38
2022-11-12T00:53:13.579Z,102719.50
2022-11-12T00:56:06.660Z,102715.44
2022-11-12T00:58:51.800Z,102717.88
2022-11-12T01:01:37.212Z,102714.41
2022-11-12T01:04:23.020Z,102704.63
2022-11-12T01:07:08.051Z,102705.16
2022-11-12T01:09:53.397Z,102704.84
2022-11-12T01:12:38.682Z,102707.84
2022-11-12T01:15:24.268Z,102705.44
2022-11-12T01:18:09.944Z,102709.78
2022-11-12T01:20:55.626Z,102710.28
2022-11-12T01:23:42.402Z,102714.03
2022-11-12T01:26:31.372Z,102715.69
2022-11-12T01:29:16.576Z,102703.78
2022-11-12T01:32:02.065Z,102708.13
2022-11-12T01:34:47.522Z,102707.56
2022-11-12T01:37:32.925Z,102706.13
2022-11-12T01:40:18.463Z,102707.28
2022-11-12T01:43:05.541Z,102704.50
2022-11-12T01:45:51.578Z,102705.56
2022-11-12T01:48:47.862Z,102704.81
2022-11-12T01:51:37.468Z,102693.50
2022-11-12T01:54:23.264Z,102697.53
2022-11-12T01:57:09.951Z,102688.91
2022-11-12T02:00:00.601Z,102692.94
2022-11-12T02:02:52.217Z,102685.09
2022-11-12T02:05:38.836Z,102686.72
2022-11-12T02:08:25.377Z,102685.63
2022-11-12T02:11:19.512Z,102682.66
2022-11-12T02:14:05.477Z,102679.13
2022-11-12T02:16:50.978Z,102679.13
2022-11-12T02:19:37.775Z,102677.22
2022-11-12T02:22:23.414Z,102680.47
2022-11-12T02:25:12.299Z,102673.72
2022-11-12T02:27:58.891Z,102664.50
2022-11-12T02:30:47.099Z,102662.34
2022-11-12T02:33:32.354Z,102663.16
2022-11-12T02:36:17.666Z,102665.84
2022-11-12T02:39:05.305Z,102668.84
2022-11-12T02:41:50.569Z,102669.06
2022-11-12T02:44:36.181Z,102666.69
2022-11-12T02:47:21.448Z,102677.47
2022-11-12T02:50:07.334Z,102680.19
2022-11-12T02:52:52.572Z,102680.50
2022-11-12T02:55:38.248Z,102680.50
2022-11-12T02:58:23.747Z,102678.22
2022-11-12T03:01:09.752Z,102671.50
2022-11-12T03:03:55.596Z,102672.88
2022-11-12T03:06:41.098Z,102679.09
2022-11-12T03:09:26.482Z,102676.66
2022-11-12T03:12:11.851Z,102687.22
2022-11-12T03:14:57.516Z,102682.00
2022-11-12T03:17:43.116Z,102685.53
2022-11-12T03:20:29.875Z,102681.50
2022-11-12T03:23:15.155Z,102683.59
2022-11-12T03:26:03.046Z,102676.13
2022-11-12T03:28:48.774Z,102673.97
2022-11-12T03:31:35.367Z,102683.63
2022-11-12T03:34:20.569Z,102690.41
2022-11-12T03:37:09.505Z,102673.34
2022-11-12T03:39:55.021Z,102676.94
2022-11-12T03:42:45.289Z,102673.31
2022-11-12T03:45:30.928Z,102671.28
2022-11-12T03:48:16.107Z,102678.88
2022-11-12T03:51:01.789Z,102675.63
2022-11-12T03:53:47.300Z,102678.88
2022-11-12T03:56:32.534Z,102673.72
2022-11-12T03:59:17.909Z,102662.34
2022-11-12T04:02:03.435Z,102671.44
2022-11-12T04:05:07.308Z,102658.47
2022-11-12T04:08:18.607Z,102654.47
2022-11-12T04:11:13.113Z,102658.38
2022-11-12T04:13:59.002Z,102660.03
2022-11-12T04:17:02.891Z,102658.06
2022-11-12T04:20:06.719Z,102654.44
2022-11-12T04:22:52.002Z,102656.34
2022-11-12T04:25:56.294Z,102652.53
2022-11-12T04:29:01.727Z,102644.41
2022-11-12T04:31:47.106Z,102652.22
2022-11-12T04:34:34.464Z,102660.28
2022-11-12T04:37:23.521Z,102652.72
2022-11-12T04:40:48.498Z,102642.94
2022-11-12T04:43:52.523Z,102642.97
2022-11-12T04:46:37.797Z,102647.91
2022-11-12T04:49:23.068Z,102650.91
2022-11-12T04:52:09.365Z,102639.53
2022-11-12T04:54:55.013Z,102636.25
2022-11-12T04:57:40.222Z,102638.94
2022-11-12T05:00:26.015Z,102646.25
2022-11-12T05:03:11.395Z,102646.25
2022-11-12T05:06:04.228Z,102647.13
2022-11-12T05:08:49.727Z,102653.84
2022-11-12T05:11:35.330Z,102640.91
2022-11-12T05:14:21.716Z,102638.47
2022-11-12T05:17:07.397Z,102628.97
2022-11-12T05:19:52.672Z,102634.94
2022-11-12T05:22:47.868Z,102633.50
2022-11-12T05:25:39.817Z,102627.09
2022-11-12T05:28:25.401Z,102631.38
2022-11-12T05:31:10.976Z,102632.22
2022-11-12T05:33:56.560Z,102639.66
2022-11-12T05:36:41.783Z,102646.56
2022-11-12T05:39:27.108Z,102637.09
2022-11-12T05:42:14.098Z,102643.91
2022-11-12T05:44:59.793Z,102630.91
2022-11-12T05:47:45.339Z,102633.78
2022-11-12T05:50:39.795Z,102634.16
2022-11-12T05:53:30.769Z,102634.72
2022-11-12T05:56:16.716Z,102631.19
2022-11-12T05:59:03.837Z,102633.94
2022-11-12T06:01:49.575Z,102636.63
2022-11-12T06:04:35.085Z,102636.88
2022-11-12T06:07:21.918Z,102633.66
2022-11-12T06:10:08.003Z,102633.44
2022-11-12T06:12:53.671Z,102634.16
2022-11-12T06:15:39.612Z,102632.00
2022-11-12T06:18:26.073Z,102631.00
2022-11-12T06:21:24.245Z,102629.38
2022-11-12T06:24:10.048Z,102624.19
2022-11-12T06:26:55.532Z,102635.63
2022-11-12T06:29:40.908Z,102627.16
2022-11-12T06:32:26.357Z,102625.59
2022-11-12T06:35:11.853Z,102631.31
2022-11-12T06:37:57.624Z,102630.50
2022-11-12T06:40:43.123Z,102628.56
2022-11-12T06:43:30.838Z,102630.78
2022-11-12T06:46:17.346Z,102633.75
2022-11-12T06:49:02.638Z,102625.63
2022-11-12T06:51:50.493Z,102625.28
2022-11-12T06:54:35.558Z,102633.91
2022-11-12T06:57:21.085Z,102633.75
2022-11-12T07:00:07.623Z,102642.28
2022-11-12T07:02:53.160Z,102642.53
2022-11-12T07:05:39.227Z,102643.13
2022-11-12T07:08:25.261Z,102653.41
2022-11-12T07:11:11.473Z,102653.94
2022-11-12T07:13:56.906Z,102649.78
2022-11-12T07:16:42.795Z,102668.19
2022-11-12T07:19:28.291Z,102672.69
2022-11-12T07:22:13.676Z,102680.66
2022-11-12T07:24:59.073Z,102680.09
2022-11-12T07:27:44.859Z,102685.44
2022-11-12T07:30:29.850Z,102680.59
2022-11-12T07:33:15.245Z,102685.50
2022-11-12T07:36:10.040Z,102692.88
2022-11-12T07:38:55.272Z,102688.22
2022-11-12T07:41:40.645Z,102686.69
2022-11-12T07:44:26.952Z,102687.44
2022-11-12T07:47:12.355Z,102692.19
2022-11-12T07:49:57.799Z,102683.31
2022-11-12T07:52:43.262Z,102681.88
2022-11-12T07:55:28.919Z,102684.59
2022-11-12T07:58:14.416Z,102692.19
2022-11-12T08:01:11.272Z,102687.66
2022-11-12T08:03:58.640Z,102693.09
2022-11-12T08:06:44.692Z,102701.00
2022-11-12T08:09:29.874Z,102693.38
2022-11-12T08:12:15.376Z,102687.97
2022-11-12T08:15:00.605Z,102685.72
2022-11-12T08:17:46.262Z,102692.09
2022-11-12T08:20:31.948Z,102698.34
2022-11-12T08:23:17.119Z,102700.97
2022-11-12T08:26:07.425Z,102706.13
2022-11-12T08:28:53.601Z,102701.25
2022-11-12T08:31:43.830Z,102707.25
2022-11-12T08:34:29.456Z,102700.84
2022-11-12T08:37:14.815Z,102699.88
2022-11-12T08:40:00.278Z,102706.50
2022-11-12T08:42:45.735Z,102703.25
2022-11-12T08:45:36.722Z,102707.09
2022-11-12T08:48:22.063Z,102707.91
2022-11-12T08:51:07.944Z,102712.53
2022-11-12T08:53:53.561Z,102703.81
2022-11-12T08:56:39.892Z,102700.84
2022-11-12T08:59:26.043Z,102697.03
2022-11-12T09:02:13.027Z,102690.19
2022-11-12T09:04:58.762Z,102691.34
2022-11-12T09:07:49.837Z,102692.97
2022-11-12T09:10:36.753Z,102682.94
2022-11-12T09:13:22.036Z,102693.19
2022-11-12T09:16:07.900Z,102682.09
2022-11-12T09:18:53.672Z,102693.47
2022-11-12T09:21:38.792Z,102699.34
2022-11-12T09:24:24.183Z,102699.34
2022-11-12T09:27:09.766Z,102708.09
2022-11-12T09:29:55.430Z,102703.41
2022-11-12T09:32:41.162Z,102709.25
2022-11-12T09:35:26.740Z,102701.38
2022-11-12T09:38:14.777Z,102699.63
2022-11-12T09:41:13.251Z,102709.25
2022-11-12T09:44:04.475Z,102708.75
2022-11-12T09:46:57.373Z,102706.66
2022-11-12T09:49:51.902Z,102705.72
2022-11-12T09:52:37.437Z,102708.78
2022-11-12T09:55:28.712Z,102711.03
2022-11-12T09:58:16.559Z,102712.53
2022-11-12T10:01:11.383Z,102704.34
2022-11-12T10:04:18.243Z,102717.19
2022-11-12T10:07:13.858Z,102717.59
2022-11-12T10:10:30.301Z,102711.09
2022-11-12T10:13:37.459Z,102710.59
2022-11-12T10:16:45.230Z,102712.44
2022-11-12T10:19:39.832Z,102720.34
2022-11-12T10:22:43.212Z,102710.47
2022-11-12T10:25:28.423Z,102703.78
2022-11-12T10:28:38.197Z,102696.69
2022-11-12T10:31:24.600Z,102704.38
2022-11-12T10:34:26.548Z,102705.56
2022-11-12T10:37:43.896Z,102690.31
2022-11-12T10:40:37.048Z,102696.63
2022-11-12T10:43:31.850Z,102686.13
2022-11-12T10:46:42.435Z,102681.06
2022-11-12T10:49:27.988Z,102686.47
2022-11-12T10:52:24.527Z,102686.78
2022-11-12T10:55:19.858Z,102697.16
2022-11-12T10:58:11.501Z,102686.97
2022-11-12T11:04:52.817Z,102670.63
2022-11-12T11:07:38.484Z,102658.22
2022-11-12T11:10:29.467Z,102662.97
2022-11-12T11:13:25.996Z,102662.41
2022-11-12T11:16:26.941Z,102651.56
2022-11-12T11:19:12.856Z,102640.00
2022-11-12T11:22:07.585Z,102643.41
2022-11-12T11:25:28.852Z,102640.31
2022-11-12T11:28:39.959Z,102633.97
2022-11-12T11:31:50.493Z,102632.00
2022-11-12T11:34:55.014Z,102624.09
2022-11-12T11:37:52.285Z,102624.09
2022-11-12T11:41:05.238Z,102620.38
2022-11-12T11:43:53.846Z,102622.81
2022-11-12T11:46:54.878Z,102617.84
2022-11-12T11:50:28.306Z,102613.34
2022-11-12T11:53:22.158Z,102616.19
2022-11-12T11:56:19.339Z,102613.72
2022-11-12T11:59:38.106Z,102604.59
2022-11-12T12:03:06.659Z,102612.09
2022-11-12T12:06:16.225Z,102610.59
2022-11-12T12:09:11.997Z,102603.34
2022-11-12T12:12:24.507Z,102608.22
2022-11-12T12:15:42.949Z,102604.03
2022-11-12T12:18:33.007Z,102603.63
2022-11-12T12:21:24.735Z,102598.56
2022-11-12T12:24:28.428Z,102587.78
2022-11-12T12:27:20.979Z,102583.66
2022-11-12T12:30:19.184Z,102581.44
2022-11-12T12:33:12.839Z,102577.91
2022-11-12T12:36:21.353Z,102566.06
2022-11-12T12:39:27.915Z,102571.81
2022-11-12T12:42:23.961Z,102564.56
2022-11-12T12:45:36.300Z,102559.38
2022-11-12T12:48:29.088Z,102558.03
2022-11-12T12:51:15.415Z,102555.38
2022-11-12T12:54:01.487Z,102557.88
2022-11-12T12:56:51.773Z,102559.63
2022-11-12T12:59:44.854Z,102548.09
2022-11-12T13:02:49.991Z,102550.34
2022-11-12T13:05:43.871Z,102550.75
2022-11-12T13:08:41.357Z,102543.72
2022-11-12T13:12:06.541Z,102546.00
2022-11-12T13:15:08.366Z,102539.31
2022-11-12T13:17:56.037Z,102540.31
2022-11-12T13:20:44.913Z,102529.63
2022-11-12T13:24:04.862Z,102534.28
2022-11-12T13:27:02.970Z,102538.09
2022-11-12T13:29:55.554Z,102533.63
2022-11-12T13:32:49.829Z,102530.41
2022-11-12T13:35:37.122Z,102544.03
2022-11-12T13:38:25.038Z,102529.16
2022-11-12T13:41:43.196Z,102520.69
2022-11-12T13:44:34.452Z,102520.47
2022-11-12T13:47:22.184Z,102521.56
2022-11-12T13:50:10.263Z,102517.56
2022-11-12T13:52:56.153Z,102510.97
2022-11-12T13:55:49.736Z,102507.78
2022-11-12T13:58:36.834Z,102500.75
2022-11-12T14:01:24.334Z,102495.81
2022-11-12T14:04:22.220Z,102507.69
2022-11-12T14:07:40.570Z,102510.16
2022-11-12T14:11:35.483Z,102507.91
2022-11-12T14:14:58.927Z,102510.19
2022-11-12T14:18:41.357Z,102504.31
2022-11-12T14:21:30.407Z,102499.38
2022-11-12T14:24:17.068Z,102502.72
2022-11-12T14:27:04.401Z,102490.47
2022-11-12T14:30:10.696Z,102487.75
2022-11-12T14:33:12.129Z,102491.31
2022-11-12T14:36:22.793Z,102491.38
2022-11-12T14:39:17.647Z,102491.69
2022-11-12T14:42:21.109Z,102481.84
2022-11-12T14:45:35.161Z,102478.13
2022-11-12T14:48:22.052Z,102471.69
2022-11-12T14:51:12.255Z,102474.88
2022-11-12T14:54:07.935Z,102473.56
2022-11-12T14:57:00.224Z,102479.03
2022-11-12T14:59:47.344Z,102470.50
2022-11-12T15:02:50.303Z,102482.41
2022-11-12T15:05:54.634Z,102471.34
2022-11-12T15:08:40.588Z,102466.88
2022-11-12T15:11:28.780Z,102476.28
2022-11-12T15:14:21.977Z,102477.78
2022-11-12T15:17:07.318Z,102483.75
2022-11-12T15:20:01.884Z,102481.03
2022-11-12T15:22:57.117Z,102476.97
2022-11-12T15:25:47.843Z,102474.41
2022-11-12T15:28:33.874Z,102480.31
2022-11-12T15:31:22.167Z,102477.75
2022-11-12T15:34:28.545Z,102469.97
2022-11-12T15:37:20.290Z,102476.72
2022-11-12T15:40:16.266Z,102460.41
2022-11-12T15:43:02.278Z,102464.16
2022-11-12T15:45:49.815Z,102457.72
2022-11-12T15:51:55.077Z,102458.50
2022-11-12T15:54:51.477Z,102452.97
2022-11-12T15:57:54.744Z,102447.31
2022-11-12T16:00:44.616Z,102446.44
2022-11-12T16:03:31.447Z,102451.09
2022-11-12T16:06:16.975Z,102445.13
2022-11-12T16:09:02.467Z,102437.78
2022-11-12T16:11:50.552Z,102430.91
2022-11-12T16:14:54.444Z,102435.75
2022-11-12T16:17:54.750Z,102437.69
2022-11-12T16:20:44.429Z,102428.97
2022-11-12T16:23:55.878Z,102426.75
2022-11-12T16:26:52.062Z,102431.72
2022-11-12T16:29:51.894Z,102421.00
2022-11-12T16:32:38.192Z,102430.47
2022-11-12T16:35:23.764Z,102427.19
2022-11-12T16:38:16.747Z,102429.69
2022-11-12T16:41:02.457Z,102431.22
2022-11-12T16:43:48.242Z,102424.47
2022-11-12T16:46:42.146Z,102434.44
2022-11-12T16:49:27.853Z,102439.03
2022-11-12T16:52:51.681Z,102438.28
2022-11-12T16:55:37.521Z,102435.38
2022-11-12T16:58:32.082Z,102435.50
2022-11-12T17:01:34.291Z,102425.38
2022-11-12T17:04:19.479Z,102429.28
2022-11-12T17:07:08.247Z,102432.16
2022-11-12T17:09:53.918Z,102426.00
2022-11-12T17:12:39.398Z,102427.47
2022-11-12T17:15:25.077Z,102441.25
2022-11-12T17:18:10.589Z,102433.25
2022-11-12T17:20:56.579Z,102439.44
2022-11-12T17:23:42.391Z,102436.31
2022-11-12T17:26:27.982Z,102437.94
2022-11-12T17:29:13.225Z,102428.13
2022-11-12T17:31:58.679Z,102430.84
2022-11-12T17:34:44.160Z,102432.97
2022-11-12T17:37:29.558Z,102426.94
2022-11-12T17:40:15.410Z,102415.91
2022-11-12T17:43:00.976Z,102419.84
2022-11-12T17:45:51.257Z,102419.03
2022-11-12T17:48:37.453Z,102420.44
2022-11-12T17:51:24.649Z,102415.91
2022-11-12T17:54:10.368Z,102418.66
2022-11-12T17:56:55.513Z,102411.78
2022-11-12T17:59:41.104Z,102410.75
2022-11-12T18:02:26.541Z,102410.38
2022-11-12T18:05:11.919Z,102406.53
2022-11-12T18:07:57.231Z,102409.28
2022-11-12T18:10:45.238Z,102414.22
2022-11-12T18:13:31.091Z,102413.81
2022-11-12T18:16:19.631Z,102415.25
2022-11-12T18:19:06.350Z,102414.50
2022-11-12T18:21:54.486Z,102413.41
2022-11-12T18:24:39.902Z,102409.69
2022-11-12T18:27:25.431Z,102409.88
2022-11-12T18:30:16.405Z,102418.25
2022-11-12T18:33:04.524Z,102408.84
2022-11-12T18:36:02.129Z,102402.78
2022-11-12T18:38:50.178Z,102402.59
2022-11-12T18:41:35.916Z,102406.13
2022-11-12T18:44:25.842Z,102399.47
2022-11-12T18:47:11.579Z,102400.38
2022-11-12T18:49:57.819Z,102405.63
2022-11-12T18:52:43.688Z,102406.31
2022-11-12T18:55:29.195Z,102404.72
2022-11-12T18:58:17.910Z,102413.47
2022-11-12T19:01:05.124Z,102409.44
2022-11-12T19:03:55.836Z,102407.81
2022-11-12T19:06:41.646Z,102409.72
2022-11-12T19:09:28.275Z,102405.78
2022-11-12T19:12:13.897Z,102404.09
2022-11-12T19:14:59.474Z,102397.59
2022-11-12T19:17:44.894Z,102395.47
2022-11-12T19:21:14.333Z,102399.81
2022-11-12T19:24:24.036Z,102401.75
2022-11-12T19:27:11.685Z,102398.22
2022-11-12T19:30:02.637Z,102399.75
2022-11-12T19:32:48.701Z,102393.03
2022-11-12T19:35:34.028Z,102397.75
2022-11-12T19:38:19.645Z,102396.44
2022-11-12T19:41:06.169Z,102395.13
2022-11-12T19:43:52.469Z,102393.72
2022-11-12T19:46:42.938Z,102387.56
2022-11-12T19:52:57.887Z,102373.50
2022-11-12T19:55:43.090Z,102376.22
2022-11-12T19:58:29.713Z,102370.44
2022-11-12T20:01:18.690Z,102373.09
2022-11-12T20:04:04.412Z,102377.13
2022-11-12T20:06:49.918Z,102370.56
2022-11-12T20:09:35.230Z,102372.28
2022-11-12T20:12:20.313Z,102370.44
2022-11-12T20:15:07.683Z,102366.41
2022-11-12T20:18:01.495Z,102374.78
2022-11-12T20:21:11.448Z,102373.03
2022-11-12T20:24:04.950Z,102380.91
2022-11-12T20:26:50.631Z,102381.84
2022-11-12T20:29:36.202Z,102379.94
2022-11-12T20:32:22.797Z,102371.13
2022-11-12T20:35:17.781Z,102369.50
2022-11-12T20:38:05.363Z,102371.13
2022-11-12T20:40:57.391Z,102358.00
2022-11-12T20:43:44.546Z,102365.78
2022-11-12T20:46:32.824Z,102367.69
2022-11-12T20:49:18.617Z,102361.78
2022-11-12T20:52:04.078Z,102359.94
2022-11-12T20:54:58.388Z,102358.31
2022-11-12T20:57:44.433Z,102356.16
2022-11-12T21:00:29.846Z,102344.53
2022-11-12T21:03:15.265Z,102348.56
2022-11-12T21:06:26.446Z,102365.56
2022-11-12T21:09:19.337Z,102358.88
2022-11-12T21:15:23.786Z,102346.25
2022-11-12T21:21:23.638Z,102330.19
2022-11-12T21:24:17.517Z,102340.75
2022-11-12T21:27:25.305Z,102336.41
2022-11-12T21:30:11.325Z,102326.72
2022-11-12T21:32:57.158Z,102335.88
2022-11-12T21:36:09.471Z,102323.69
2022-11-12T21:39:31.782Z,102333.16
2022-11-12T21:45:26.161Z,102325.75
2022-11-12T21:48:19.560Z,102313.31
2022-11-12T21:51:13.874Z,102309.78
2022-11-12T21:54:15.877Z,102321.84
2022-11-12T21:57:16.135Z,102337.97
2022-11-12T22:00:34.668Z,102330.00
2022-11-12T22:03:11.930Z,102338.16
2022-11-12T22:06:00.616Z,102331.91
2022-11-12T22:08:50.473Z,102336.63
2022-11-12T22:14:41.201Z,102335.03
2022-11-12T22:17:28.736Z,102338.59
2022-11-12T22:20:17.947Z,102339.63
2022-11-12T22:26:25.838Z,102343.63
2022-11-12T22:30:31.967Z,102331.84
2022-11-12T22:32:31.328Z,102321.28
2022-11-12T22:35:18.666Z,102314.34
2022-11-12T22:38:12.289Z,102310.09
2022-11-12T22:41:13.255Z,102306.50
2022-11-12T22:44:06.440Z,102311.25
2022-11-12T22:46:52.682Z,102309.38
2022-11-12T22:49:41.382Z,102301.84
2022-11-12T22:52:27.073Z,102305.75
2022-11-12T22:55:12.201Z,102291.41
2022-11-12T22:57:59.852Z,102293.41
2022-11-12T23:00:45.348Z,102297.78
2022-11-12T23:03:31.984Z,102290.00
2022-11-12T23:06:18.199Z,102291.09
2022-11-12T23:09:04.039Z,102294.44
2022-11-12T23:11:49.214Z,102284.16
2022-11-12T23:14:34.712Z,102296.28
2022-11-12T23:17:20.597Z,102288.72
2022-11-12T23:20:06.578Z,102293.47
2022-11-12T23:22:52.263Z,102283.88
2022-11-12T23:25:38.530Z,102280.91
2022-11-12T23:28:23.943Z,102279.06
2022-11-12T23:31:20.767Z,102278.53
2022-11-12T23:34:06.040Z,102278.09
2022-11-12T23:36:51.500Z,102265.75
2022-11-12T23:39:36.984Z,102266.56
2022-11-12T23:42:22.953Z,102262.59
2022-11-12T23:45:08.965Z,102274.03
2022-11-12T23:47:56.048Z,102265.59
2022-11-12T23:50:41.832Z,102270.44
2022-11-12T23:53:27.118Z,102253.41
2022-11-12T23:56:14.670Z,102246.97
2022-11-12T23:59:00.339Z,102251.31
